sensor_id;sensor_type;location;lat;lon;timestamp;P1;durP1;ratioP1;P2;durP2;ratioP2
48014;SDS011;33780;51.034;7.120;2022-09-30T13:42:55;3.15;;;1.30;;
48014;SDS011;33780;51.034;7.120;2022-09-30T13:45:24;2.25;;;1.10;;
48014;SDS011;33780;51.034;7.120;2022-09-30T13:50:40;4.05;;;1.15;;
48014;SDS011;33780;51.034;7.120;2022-09-30T13:56:19;3.45;;;1.50;;
48014;SDS011;33780;51.034;7.120;2022-09-30T14:04:59;3.87;;;1.07;;
48014;SDS011;33780;51.034;7.120;2022-09-30T14:07:50;2.33;;;1.15;;
48014;SDS011;33780;51.034;7.120;2022-09-30T14:13:54;2.00;;;0.90;;
48014;SDS011;33780;51.034;7.120;2022-09-30T14:19:42;2.80;;;0.90;;
48014;SDS011;33780;51.034;7.120;2022-09-30T14:22:10;2.05;;;0.70;;
48014;SDS011;33780;51.034;7.120;2022-09-30T14:24:37;2.35;;;0.82;;
48014;SDS011;33780;51.034;7.120;2022-09-30T14:27:11;1.38;;;0.70;;
48014;SDS011;33780;51.034;7.120;2022-09-30T14:30:10;1.45;;;0.73;;
48014;SDS011;33780;51.034;7.120;2022-09-30T14:32:47;2.38;;;1.00;;
48014;SDS011;33780;51.034;7.120;2022-09-30T14:35:18;2.35;;;1.00;;
48014;SDS011;33780;51.034;7.120;2022-09-30T14:38:08;1.73;;;0.77;;
48014;SDS011;33780;51.034;7.120;2022-09-30T14:40:39;1.42;;;0.80;;
48014;SDS011;33780;51.034;7.120;2022-09-30T14:45:40;2.47;;;0.80;;
48014;SDS011;33780;51.034;7.120;2022-09-30T14:48:22;1.75;;;0.80;;
48014;SDS011;33780;51.034;7.120;2022-09-30T14:50:55;1.90;;;0.80;;
48014;SDS011;33780;51.034;7.120;2022-09-30T14:53:25;1.77;;;0.93;;
48014;SDS011;33780;51.034;7.120;2022-09-30T14:55:56;2.90;;;0.60;;
48014;SDS011;33780;51.034;7.120;2022-09-30T14:58:26;1.10;;;0.60;;
48014;SDS011;33780;51.034;7.120;2022-09-30T15:03:28;1.88;;;0.68;;
48014;SDS011;33780;51.034;7.120;2022-09-30T15:05:56;1.80;;;0.40;;
48014;SDS011;33780;51.034;7.120;2022-09-30T15:08:22;1.65;;;0.65;;
48014;SDS011;33780;51.034;7.120;2022-09-30T15:10:48;1.58;;;0.60;;
48014;SDS011;33780;51.034;7.120;2022-09-30T15:13:19;1.40;;;0.60;;
48014;SDS011;33780;51.034;7.120;2022-09-30T15:15:46;2.42;;;1.00;;
48014;SDS011;33780;51.034;7.120;2022-09-30T15:18:22;1.23;;;0.60;;
48014;SDS011;33780;51.034;7.120;2022-09-30T15:21:04;1.50;;;0.65;;
48014;SDS011;33780;51.034;7.120;2022-09-30T15:23:34;1.63;;;0.90;;
48014;SDS011;33780;51.034;7.120;2022-09-30T15:26:01;1.02;;;0.60;;
48014;SDS011;33780;51.034;7.120;2022-09-30T15:28:27;2.25;;;0.50;;
48014;SDS011;33780;51.034;7.120;2022-09-30T15:30:55;1.23;;;0.65;;
48014;SDS011;33780;51.034;7.120;2022-09-30T15:33:22;1.20;;;0.40;;
48014;SDS011;33780;51.034;7.120;2022-09-30T15:35:51;0.90;;;0.50;;
48014;SDS011;33780;51.034;7.120;2022-09-30T15:38:25;2.85;;;0.60;;
48014;SDS011;33780;51.034;7.120;2022-09-30T15:40:58;1.23;;;0.70;;
48014;SDS011;33780;51.034;7.120;2022-09-30T15:43:29;1.00;;;0.43;;
48014;SDS011;33780;51.034;7.120;2022-09-30T15:45:57;1.27;;;0.60;;
48014;SDS011;33780;51.034;7.120;2022-09-30T15:48:45;1.35;;;0.47;;
48014;SDS011;33780;51.034;7.120;2022-09-30T15:56:51;1.52;;;0.70;;
48014;SDS011;33780;51.034;7.120;2022-09-30T15:59:17;1.75;;;0.60;;
48014;SDS011;33780;51.034;7.120;2022-09-30T16:01:43;0.90;;;0.40;;
48014;SDS011;33780;51.034;7.120;2022-09-30T16:09:06;1.63;;;0.60;;
48014;SDS011;33780;51.034;7.120;2022-09-30T16:11:42;1.10;;;0.50;;
48014;SDS011;33780;51.034;7.120;2022-09-30T16:14:16;2.10;;;0.60;;
48014;SDS011;33780;51.034;7.120;2022-09-30T16:16:52;1.45;;;0.60;;
48014;SDS011;33780;51.034;7.120;2022-09-30T16:19:19;1.42;;;0.50;;
48014;SDS011;33780;51.034;7.120;2022-09-30T16:21:48;1.52;;;0.57;;
48014;SDS011;33780;51.034;7.120;2022-09-30T16:26:46;2.15;;;0.40;;
48014;SDS011;33780;51.034;7.120;2022-09-30T16:29:13;1.30;;;0.60;;
48014;SDS011;33780;51.034;7.120;2022-09-30T16:31:39;1.00;;;0.50;;
48014;SDS011;33780;51.034;7.120;2022-09-30T16:34:05;1.65;;;0.60;;
48014;SDS011;33780;51.034;7.120;2022-09-30T16:36:31;1.27;;;0.60;;
48014;SDS011;33780;51.034;7.120;2022-09-30T16:38:56;1.63;;;0.77;;
48014;SDS011;33780;51.034;7.120;2022-09-30T16:41:23;1.50;;;0.80;;
48014;SDS011;33780;51.034;7.120;2022-09-30T16:43:49;1.85;;;0.75;;
48014;SDS011;33780;51.034;7.120;2022-09-30T16:46:15;3.28;;;0.60;;
48014;SDS011;33780;51.034;7.120;2022-09-30T16:48:40;2.13;;;0.68;;
48014;SDS011;33780;51.034;7.120;2022-09-30T16:51:08;1.30;;;0.65;;
48014;SDS011;33780;51.034;7.120;2022-09-30T16:53:38;1.08;;;0.60;;
48014;SDS011;33780;51.034;7.120;2022-09-30T16:56:03;1.25;;;0.52;;
48014;SDS011;33780;51.034;7.120;2022-09-30T16:58:28;0.80;;;0.40;;
48014;SDS011;33780;51.034;7.120;2022-09-30T17:00:55;1.15;;;0.50;;
48014;SDS011;33780;51.034;7.120;2022-09-30T17:03:24;1.00;;;0.50;;
48014;SDS011;33780;51.034;7.120;2022-09-30T17:05:50;1.73;;;0.80;;
48014;SDS011;33780;51.034;7.120;2022-09-30T17:08:18;1.70;;;0.80;;
48014;SDS011;33780;51.034;7.120;2022-09-30T17:10:45;6.45;;;1.05;;
48014;SDS011;33780;51.034;7.120;2022-09-30T17:13:12;1.48;;;0.80;;
48014;SDS011;33780;51.034;7.120;2022-09-30T17:15:40;2.80;;;0.80;;
48014;SDS011;33780;51.034;7.120;2022-09-30T17:18:07;1.30;;;0.70;;
48014;SDS011;33780;51.034;7.120;2022-09-30T17:20:34;1.10;;;0.60;;
48014;SDS011;33780;51.034;7.120;2022-09-30T17:23:00;2.05;;;0.80;;
48014;SDS011;33780;51.034;7.120;2022-09-30T17:25:25;1.33;;;0.68;;
48014;SDS011;33780;51.034;7.120;2022-09-30T17:27:51;1.48;;;0.70;;
48014;SDS011;33780;51.034;7.120;2022-09-30T17:30:16;1.25;;;0.63;;
48014;SDS011;33780;51.034;7.120;2022-09-30T17:32:43;1.00;;;0.60;;
48014;SDS011;33780;51.034;7.120;2022-09-30T17:35:08;3.42;;;0.80;;
48014;SDS011;33780;51.034;7.120;2022-09-30T17:37:34;2.85;;;0.65;;
48014;SDS011;33780;51.034;7.120;2022-09-30T17:40:04;1.52;;;0.70;;
48014;SDS011;33780;51.034;7.120;2022-09-30T17:42:49;1.52;;;0.70;;
48014;SDS011;33780;51.034;7.120;2022-09-30T17:45:33;3.95;;;0.88;;
48014;SDS011;33780;51.034;7.120;2022-09-30T17:48:00;1.60;;;0.65;;
48014;SDS011;33780;51.034;7.120;2022-09-30T17:50:25;1.73;;;0.60;;
48014;SDS011;33780;51.034;7.120;2022-09-30T17:52:51;1.58;;;0.60;;
48014;SDS011;33780;51.034;7.120;2022-09-30T17:55:17;2.00;;;0.80;;
48014;SDS011;33780;51.034;7.120;2022-09-30T17:57:42;2.55;;;0.68;;
48014;SDS011;33780;51.034;7.120;2022-09-30T18:00:07;1.48;;;0.80;;
48014;SDS011;33780;51.034;7.120;2022-09-30T18:02:33;2.15;;;0.75;;
48014;SDS011;33780;51.034;7.120;2022-09-30T18:04:58;2.22;;;0.90;;
48014;SDS011;33780;51.034;7.120;2022-09-30T18:07:24;1.70;;;0.98;;
48014;SDS011;33780;51.034;7.120;2022-09-30T18:09:51;1.38;;;0.65;;
48014;SDS011;33780;51.034;7.120;2022-09-30T18:12:16;4.32;;;0.90;;
48014;SDS011;33780;51.034;7.120;2022-09-30T18:14:42;1.50;;;0.80;;
48014;SDS011;33780;51.034;7.120;2022-09-30T18:17:08;1.90;;;0.90;;
48014;SDS011;33780;51.034;7.120;2022-09-30T18:19:33;2.22;;;0.80;;
48014;SDS011;33780;51.034;7.120;2022-09-30T18:21:59;1.35;;;0.70;;
48014;SDS011;33780;51.034;7.120;2022-09-30T18:24:25;5.55;;;0.90;;
48014;SDS011;33780;51.034;7.120;2022-09-30T18:27:09;2.08;;;0.90;;
48014;SDS011;33780;51.034;7.120;2022-09-30T18:29:34;2.38;;;0.90;;
48014;SDS011;33780;51.034;7.120;2022-09-30T18:32:00;1.95;;;0.80;;
48014;SDS011;33780;51.034;7.120;2022-09-30T18:34:26;2.63;;;0.60;;
48014;SDS011;33780;51.034;7.120;2022-09-30T18:36:51;4.05;;;1.00;;
48014;SDS011;33780;51.034;7.120;2022-09-30T18:39:17;2.50;;;0.90;;
48014;SDS011;33780;51.034;7.120;2022-09-30T18:41:42;2.15;;;1.00;;
48014;SDS011;33780;51.034;7.120;2022-09-30T18:44:08;4.63;;;1.10;;
48014;SDS011;33780;51.034;7.120;2022-09-30T18:46:34;2.17;;;1.00;;
48014;SDS011;33780;51.034;7.120;2022-09-30T18:49:02;1.50;;;0.70;;
48014;SDS011;33780;51.034;7.120;2022-09-30T18:51:28;3.05;;;0.80;;
48014;SDS011;33780;51.034;7.120;2022-09-30T18:53:58;3.22;;;0.90;;
48014;SDS011;33780;51.034;7.120;2022-09-30T18:56:24;1.63;;;0.70;;
48014;SDS011;33780;51.034;7.120;2022-09-30T18:58:53;1.30;;;0.90;;
48014;SDS011;33780;51.034;7.120;2022-09-30T19:01:18;2.55;;;0.85;;
48014;SDS011;33780;51.034;7.120;2022-09-30T19:03:44;1.35;;;0.90;;
48014;SDS011;33780;51.034;7.120;2022-09-30T19:06:09;2.67;;;0.90;;
48014;SDS011;33780;51.034;7.120;2022-09-30T19:08:35;1.20;;;0.68;;
48014;SDS011;33780;51.034;7.120;2022-09-30T19:11:04;1.65;;;0.80;;
48014;SDS011;33780;51.034;7.120;2022-09-30T19:13:31;1.90;;;0.70;;
48014;SDS011;33780;51.034;7.120;2022-09-30T19:16:01;1.88;;;0.70;;
48014;SDS011;33780;51.034;7.120;2022-09-30T19:18:28;1.67;;;0.90;;
48014;SDS011;33780;51.034;7.120;2022-09-30T19:20:55;2.10;;;1.02;;
48014;SDS011;33780;51.034;7.120;2022-09-30T19:23:28;2.35;;;1.00;;
48014;SDS011;33780;51.034;7.120;2022-09-30T19:25:55;2.33;;;1.27;;
48014;SDS011;33780;51.034;7.120;2022-09-30T19:28:21;1.83;;;1.05;;
48014;SDS011;33780;51.034;7.120;2022-09-30T19:30:46;2.97;;;2.50;;
48014;SDS011;33780;51.034;7.120;2022-09-30T19:33:12;2.40;;;1.20;;
48014;SDS011;33780;51.034;7.120;2022-09-30T19:35:37;2.15;;;1.00;;
48014;SDS011;33780;51.034;7.120;2022-09-30T19:38:03;2.83;;;1.20;;
48014;SDS011;33780;51.034;7.120;2022-09-30T19:40:29;2.22;;;1.02;;
48014;SDS011;33780;51.034;7.120;2022-09-30T19:42:56;2.03;;;1.10;;
48014;SDS011;33780;51.034;7.120;2022-09-30T19:45:21;1.52;;;0.90;;
48014;SDS011;33780;51.034;7.120;2022-09-30T19:47:48;2.03;;;0.80;;
48014;SDS011;33780;51.034;7.120;2022-09-30T19:50:14;1.73;;;0.90;;
48014;SDS011;33780;51.034;7.120;2022-09-30T19:52:39;3.05;;;1.05;;
48014;SDS011;33780;51.034;7.120;2022-09-30T19:55:05;2.17;;;1.10;;
48014;SDS011;33780;51.034;7.120;2022-09-30T19:57:32;3.47;;;1.20;;
48014;SDS011;33780;51.034;7.120;2022-09-30T19:59:57;2.20;;;1.20;;
48014;SDS011;33780;51.034;7.120;2022-09-30T20:02:23;4.13;;;1.30;;
48014;SDS011;33780;51.034;7.120;2022-09-30T20:04:48;3.88;;;1.60;;
48014;SDS011;33780;51.034;7.120;2022-09-30T20:07:15;2.67;;;1.35;;
48014;SDS011;33780;51.034;7.120;2022-09-30T20:09:40;2.47;;;1.33;;
48014;SDS011;33780;51.034;7.120;2022-09-30T20:12:10;2.92;;;1.52;;
48014;SDS011;33780;51.034;7.120;2022-09-30T20:14:36;2.67;;;1.70;;
48014;SDS011;33780;51.034;7.120;2022-09-30T20:17:23;3.38;;;1.70;;
48014;SDS011;33780;51.034;7.120;2022-09-30T20:19:48;2.45;;;1.45;;
48014;SDS011;33780;51.034;7.120;2022-09-30T20:22:33;2.78;;;1.77;;
48014;SDS011;33780;51.034;7.120;2022-09-30T20:24:59;2.67;;;1.48;;
48014;SDS011;33780;51.034;7.120;2022-09-30T20:27:24;4.63;;;1.50;;
48014;SDS011;33780;51.034;7.120;2022-09-30T20:29:55;3.53;;;1.48;;
48014;SDS011;33780;51.034;7.120;2022-09-30T20:32:20;2.35;;;1.40;;
48014;SDS011;33780;51.034;7.120;2022-09-30T20:34:45;2.60;;;1.63;;
48014;SDS011;33780;51.034;7.120;2022-09-30T20:37:11;3.67;;;1.42;;
48014;SDS011;33780;51.034;7.120;2022-09-30T20:39:36;2.65;;;1.27;;
48014;SDS011;33780;51.034;7.120;2022-09-30T20:42:04;3.03;;;1.58;;
48014;SDS011;33780;51.034;7.120;2022-09-30T20:44:30;2.63;;;1.50;;
48014;SDS011;33780;51.034;7.120;2022-09-30T20:46:57;2.55;;;1.40;;
48014;SDS011;33780;51.034;7.120;2022-09-30T20:49:23;2.95;;;1.40;;
48014;SDS011;33780;51.034;7.120;2022-09-30T20:51:48;3.40;;;1.52;;
48014;SDS011;33780;51.034;7.120;2022-09-30T20:54:14;3.08;;;1.30;;
48014;SDS011;33780;51.034;7.120;2022-09-30T20:56:39;2.80;;;1.55;;
48014;SDS011;33780;51.034;7.120;2022-09-30T20:59:04;5.30;;;1.50;;
48014;SDS011;33780;51.034;7.120;2022-09-30T21:01:30;3.38;;;1.60;;
48014;SDS011;33780;51.034;7.120;2022-09-30T21:03:56;2.47;;;1.38;;
48014;SDS011;33780;51.034;7.120;2022-09-30T21:06:25;3.45;;;1.40;;
48014;SDS011;33780;51.034;7.120;2022-09-30T21:08:52;3.00;;;1.42;;
48014;SDS011;33780;51.034;7.120;2022-09-30T21:11:18;2.60;;;1.40;;
48014;SDS011;33780;51.034;7.120;2022-09-30T21:13:44;5.70;;;1.58;;
48014;SDS011;33780;51.034;7.120;2022-09-30T21:16:13;3.00;;;1.35;;
48014;SDS011;33780;51.034;7.120;2022-09-30T21:18:40;2.80;;;1.52;;
48014;SDS011;33780;51.034;7.120;2022-09-30T21:21:07;3.28;;;1.45;;
48014;SDS011;33780;51.034;7.120;2022-09-30T21:23:34;2.20;;;1.13;;
48014;SDS011;33780;51.034;7.120;2022-09-30T21:26:02;3.95;;;1.50;;
48014;SDS011;33780;51.034;7.120;2022-09-30T21:28:29;3.80;;;1.70;;
48014;SDS011;33780;51.034;7.120;2022-09-30T21:30:55;4.53;;;1.50;;
48014;SDS011;33780;51.034;7.120;2022-09-30T21:33:21;2.92;;;1.30;;
48014;SDS011;33780;51.034;7.120;2022-09-30T21:35:47;4.32;;;1.45;;
48014;SDS011;33780;51.034;7.120;2022-09-30T21:38:13;2.83;;;1.27;;
48014;SDS011;33780;51.034;7.120;2022-09-30T21:40:44;1.85;;;1.13;;
48014;SDS011;33780;51.034;7.120;2022-09-30T21:43:11;2.47;;;1.40;;
48014;SDS011;33780;51.034;7.120;2022-09-30T21:45:37;2.35;;;1.30;;
48014;SDS011;33780;51.034;7.120;2022-09-30T21:48:03;3.42;;;1.20;;
48014;SDS011;33780;51.034;7.120;2022-09-30T21:50:32;3.17;;;1.30;;
48014;SDS011;33780;51.034;7.120;2022-09-30T21:53:03;2.25;;;1.20;;
48014;SDS011;33780;51.034;7.120;2022-09-30T21:55:37;2.72;;;1.30;;
48014;SDS011;33780;51.034;7.120;2022-09-30T21:58:02;2.10;;;1.17;;
48014;SDS011;33780;51.034;7.120;2022-09-30T22:00:27;1.98;;;1.38;;
48014;SDS011;33780;51.034;7.120;2022-09-30T22:02:53;3.75;;;1.48;;
48014;SDS011;33780;51.034;7.120;2022-09-30T22:05:18;4.55;;;1.60;;
48014;SDS011;33780;51.034;7.120;2022-09-30T22:07:45;2.67;;;1.38;;
48014;SDS011;33780;51.034;7.120;2022-09-30T22:10:11;3.60;;;1.38;;
48014;SDS011;33780;51.034;7.120;2022-09-30T22:12:37;2.63;;;1.45;;
48014;SDS011;33780;51.034;7.120;2022-09-30T22:15:02;2.50;;;1.55;;
48014;SDS011;33780;51.034;7.120;2022-09-30T22:17:28;2.83;;;1.30;;
48014;SDS011;33780;51.034;7.120;2022-09-30T22:19:53;2.65;;;1.40;;
48014;SDS011;33780;51.034;7.120;2022-09-30T22:22:20;2.58;;;1.38;;
48014;SDS011;33780;51.034;7.120;2022-09-30T22:24:45;3.08;;;1.35;;
48014;SDS011;33780;51.034;7.120;2022-09-30T22:27:12;3.80;;;1.40;;
48014;SDS011;33780;51.034;7.120;2022-09-30T22:29:38;3.42;;;1.50;;
48014;SDS011;33780;51.034;7.120;2022-09-30T22:32:03;2.70;;;1.30;;
48014;SDS011;33780;51.034;7.120;2022-09-30T22:34:28;4.72;;;1.33;;
48014;SDS011;33780;51.034;7.120;2022-09-30T22:37:14;3.08;;;1.33;;
48014;SDS011;33780;51.034;7.120;2022-09-30T22:39:57;3.25;;;1.67;;
48014;SDS011;33780;51.034;7.120;2022-09-30T22:42:23;2.75;;;1.60;;
48014;SDS011;33780;51.034;7.120;2022-09-30T22:44:48;2.20;;;1.40;;
48014;SDS011;33780;51.034;7.120;2022-09-30T22:47:14;2.75;;;1.52;;
48014;SDS011;33780;51.034;7.120;2022-09-30T22:49:40;1.95;;;1.35;;
48014;SDS011;33780;51.034;7.120;2022-09-30T22:52:05;2.47;;;1.38;;
48014;SDS011;33780;51.034;7.120;2022-09-30T22:54:32;2.92;;;1.60;;
48014;SDS011;33780;51.034;7.120;2022-09-30T22:56:59;3.25;;;1.70;;
48014;SDS011;33780;51.034;7.120;2022-09-30T22:59:24;3.15;;;1.40;;
48014;SDS011;33780;51.034;7.120;2022-09-30T23:01:50;2.30;;;1.33;;
48014;SDS011;33780;51.034;7.120;2022-09-30T23:04:16;2.50;;;1.35;;
48014;SDS011;33780;51.034;7.120;2022-09-30T23:06:43;3.83;;;1.23;;
48014;SDS011;33780;51.034;7.120;2022-09-30T23:09:12;3.22;;;1.58;;
48014;SDS011;33780;51.034;7.120;2022-09-30T23:11:38;2.92;;;1.50;;
48014;SDS011;33780;51.034;7.120;2022-09-30T23:14:06;5.50;;;1.55;;
48014;SDS011;33780;51.034;7.120;2022-09-30T23:16:32;2.50;;;1.50;;
48014;SDS011;33780;51.034;7.120;2022-09-30T23:18:57;3.45;;;1.60;;
48014;SDS011;33780;51.034;7.120;2022-09-30T23:21:23;2.42;;;1.20;;
48014;SDS011;33780;51.034;7.120;2022-09-30T23:23:48;2.85;;;1.45;;
48014;SDS011;33780;51.034;7.120;2022-09-30T23:26:15;4.18;;;1.70;;
48014;SDS011;33780;51.034;7.120;2022-09-30T23:28:42;3.38;;;1.58;;
48014;SDS011;33780;51.034;7.120;2022-09-30T23:31:09;3.60;;;1.88;;
48014;SDS011;33780;51.034;7.120;2022-09-30T23:33:47;2.10;;;1.30;;
48014;SDS011;33780;51.034;7.120;2022-09-30T23:36:15;3.67;;;1.52;;
48014;SDS011;33780;51.034;7.120;2022-09-30T23:38:43;3.33;;;1.58;;
48014;SDS011;33780;51.034;7.120;2022-09-30T23:41:09;3.55;;;1.50;;
48014;SDS011;33780;51.034;7.120;2022-09-30T23:43:36;2.58;;;1.35;;
48014;SDS011;33780;51.034;7.120;2022-09-30T23:46:02;3.28;;;1.63;;
48014;SDS011;33780;51.034;7.120;2022-09-30T23:48:30;2.33;;;1.40;;
48014;SDS011;33780;51.034;7.120;2022-09-30T23:50:56;3.55;;;1.50;;
48014;SDS011;33780;51.034;7.120;2022-09-30T23:53:22;2.63;;;1.42;;
48014;SDS011;33780;51.034;7.120;2022-09-30T23:56:01;2.35;;;1.30;;
